Elon, NC

20:12 EDT le 26 avril 2015 (GMT -0400)
Burlington | | Change Station
CLOSE
Current Station
Stations météorologiques personnelles
Location: Burlington, NC
Altitude: 646 ft
Stations météo à proximité

Alt. 646 ft 36.10 °N, 79.47 °W | Updated 7 minutes ago

Couvert
Couvert
51.6 ° F
Paraît 51.6 ° F
N
0.0
Vent Variable Vent de ESE

Aujourd'hui
Haut(e) -- | Bas -- ° F
--% Risque de précip.
Hier
Haut(e) -- | Bas -- ° F
Precip. -- pouce
6:31 AM 8:01 PM
Premier quartier, 60% visible
Pression 29.75 pouce
Visibilité 10.0 Miles terrestres
Nuages Couvert 11000 ft
Point de rosée 49 ° F
Humidité 90%
Précipitations 0.11 pouce
Profondeur de la couche neigeuse Non disponible.
UV 0 sur 12
Pollen 6.10 sur 12
Qualité de l'air Non disponible.
Flu Activity Sporadic
METAR KBUY 262354Z AUTO 34004KT 10SM OVC110 11/07 A2975 RMK AO2 SLP074 T01060067 10117 20100 53006

More Conditions Fewer Conditions

Pression 29.75 pouce
Visibilité 10.0 Miles terrestres
Nuages Couvert 11000 ft
Point de rosée 49 ° F
Humidité 90%
Précipitations 0.11 pouce
Profondeur de la couche neigeuse Non disponible.
UV 0 sur 12
Pollen 6.10 sur 12
Qualité de l'air Non disponible.
Flu Activity Sporadic
METAR KBUY 262354Z AUTO 34004KT 10SM OVC110 11/07 A2975 RMK AO2 SLP074 T01060067 10117 20100 53006

More Conditions Fewer Conditions

The full scope of the disaster following a powerful 7.8-magnitude earthquake in Nepal may not come into view for days, but global charities are already sending emergency aid. Click to see how you can help.

10-Day Weather Forecast

Almanac

Astronomie

Apr. 26, 2015 Lever Coucher
Temps réel
Crépuscule civil
Crépuscule nautique
Crépuscule astronomique
Lune
Durée de lumière visible
Longueur du jour
Tomorrow will be .
, % of the Moon is Illuminated

Extrêmes aujourd'hui

State Highs State Lows

Community

WunderPhotos

Upload Photos

1,817,171 Photos téléchargées !

WunderBlogs® & News

Nearby

Qualité de l'air

  Qualité de l'air Indice de la qualité de l'air Polluant
Not available.

Épaisseur de neige

Station Depth Altitude

Activité sismique

Ville Distance Mag. Time & Date
Minimum magnitude displayed is 2.5.

Températures des eaux côtières

Lieu Température

Stations

Stations météo à proximité

Emplacement de la station Température Refroidissement éolien Point de rosée Humidité Vent Precip. Alt. Mise à jour Type